Etusivu
METAR-TAF:

METAR-TAF

Lentoasemat :

Jacksonville Municipal Airport

Jacksonville, Illinois, Yhdysvallat

Leveyspiiri: 39-46-27N, Pituuspiiri: 090-14-19W, korkeus merenpinnasta: 190 m

Tämänhetkinen sää

Tämä raportti tehtiin 10 minuuttia sitten, kello 18.15 UTC
Tuuli 13 kn etelästä
Lämpötila -3°C
Kosteus 54%
Ilmanpaine 1021 hPa
Näkyvyys: 16.1 km
selkeää

METAR: KIJX 131815Z AUTO 17013KT 10SM CLR M03/M11 A3014 RMK AO2 T10351114

Aika: 12:25 (18:25 UTC)


TAF: puuttuu

Säähavainnot ja -ennusteet yli 4000 lentoasemalta (METAR- ja TAF-raportit).

Käytössä olevat sääasemat on merkitty karttaan keltaisilla ja punaisilla pisteillä.

Aseta hiiri pisteen päälle nähdäksesi sääaseman nimen.

Klikkaa sitten nähdäksesi säähavainnot ja -ennusteet.

Kartan vaihtaminen: klikkaa mustalla rastilla varustettuja vihreitä pisteitä, niin voit zoomata sisään; viivalla varustettua vihreää pistettä, niin voit zoomata ulos tai vihreitä nuolia, niin pääset viereisille kartoille.


METAR-TAF: